Time;durP1;ratioP1;P1;durP2;ratioP2;P2;SDS_P1;SDS_P2;PMS_P1;PMS_P2;Temp;Humidity;BMP_temperature;BMP_pressure;BME280_temperature;BME280_humidity;BME280_pressure;Samples;Min_cycle;Max_cycle;Signal;HPM_P1;HPM_P2
2021/10/30 00:02:05;;;;;;;2.65;1.80;;;;;;;;;;4954514;29;20054;-75
2021/10/30 00:04:33;;;;;;;2.95;1.88;;;;;;;;;;4958114;29;20042;-78
2021/10/30 00:07:04;;;;;;;2.20;1.58;;;;;;;;;;4941743;29;20142;-77
2021/10/30 00:09:31;;;;;;;2.85;1.77;;;;;;;;;;4941537;29;20051;-78
2021/10/30 00:12:00;;;;;;;1.80;1.60;;;;;;;;;;4941241;29;20051;-75
2021/10/30 00:14:31;;;;;;;1.63;1.48;;;;;;;;;;4958490;29;20043;-75
2021/10/30 00:16:59;;;;;;;5.13;3.35;;;;;;;;;;4941034;29;20074;-75
2021/10/30 00:19:27;;;;;;;3.50;1.90;;;;;;;;;;4941330;29;20039;-77
2021/10/30 00:21:54;;;;;;;3.78;1.80;;;;;;;;;;4958285;29;20126;-77
2021/10/30 00:24:27;;;;;;;2.00;1.80;;;;;;;;;;4941457;29;20051;-77
2021/10/30 00:26:55;;;;;;;2.58;1.70;;;;;;;;;;4940680;29;20043;-77
2021/10/30 00:29:22;;;;;;;2.85;2.00;;;;;;;;;;4941393;29;20039;-77
2021/10/30 00:31:51;;;;;;;3.60;1.70;;;;;;;;;;4957747;29;20046;-78
2021/10/30 00:34:18;;;;;;;2.50;1.65;;;;;;;;;;4957881;28;20039;-77
2021/10/30 00:36:47;;;;;;;2.60;1.83;;;;;;;;;;4925437;29;20493;-76
2021/10/30 00:39:16;;;;;;;2.38;1.80;;;;;;;;;;4957690;29;20050;-75
2021/10/30 00:41:51;;;;;;;1.77;1.67;;;;;;;;;;4940340;29;20139;-74
2021/10/30 00:44:20;;;;;;;1.40;1.30;;;;;;;;;;4957750;29;20031;-74
2021/10/30 00:46:49;;;;;;;1.63;1.27;;;;;;;;;;4924931;29;20093;-74
2021/10/30 00:49:19;;;;;;;1.67;1.58;;;;;;;;;;4957958;29;20046;-75
2021/10/30 00:51:51;;;;;;;2.35;1.48;;;;;;;;;;4957161;29;20047;-76
2021/10/30 00:54:19;;;;;;;4.63;1.73;;;;;;;;;;4957275;29;20404;-75
2021/10/30 00:56:47;;;;;;;5.53;1.75;;;;;;;;;;4957990;29;20059;-75
2021/10/30 00:59:16;;;;;;;2.40;1.83;;;;;;;;;;4958060;29;20450;-76
2021/10/30 01:01:46;;;;;;;3.55;1.85;;;;;;;;;;4924623;29;20416;-75
2021/10/30 01:04:14;;;;;;;2.85;1.92;;;;;;;;;;4957384;29;20043;-75
2021/10/30 01:06:46;;;;;;;3.00;2.03;;;;;;;;;;4957609;29;20488;-77
2021/10/30 01:09:15;;;;;;;3.08;1.90;;;;;;;;;;4957239;29;20126;-76
2021/10/30 01:11:43;;;;;;;2.63;1.90;;;;;;;;;;4956978;29;20050;-76
2021/10/30 01:14:17;;;;;;;2.53;1.80;;;;;;;;;;4939526;29;20044;-76
2021/10/30 01:16:58;;;;;;;2.88;1.75;;;;;;;;;;4940252;29;20049;-77
2021/10/30 01:19:29;;;;;;;3.05;1.75;;;;;;;;;;4957800;29;20035;-77
2021/10/30 01:21:58;;;;;;;2.13;1.95;;;;;;;;;;4940040;29;20142;-78
2021/10/30 01:24:27;;;;;;;4.88;1.75;;;;;;;;;;4943199;29;20056;-78
2021/10/30 01:27:00;;;;;;;2.10;1.75;;;;;;;;;;4926793;29;20047;-77
2021/10/30 01:29:29;;;;;;;;;;;;;;;;;;4957396;29;20048;-75
2021/10/30 01:31:58;;;;;;;1.83;1.60;;;;;;;;;;4956777;29;19922;-78
2021/10/30 01:34:27;;;;;;;1.98;1.80;;;;;;;;;;4956965;29;20035;-75
2021/10/30 01:36:56;;;;;;;3.15;1.90;;;;;;;;;;4956732;29;20501;-77
2021/10/30 01:39:26;;;;;;;2.65;1.90;;;;;;;;;;4939651;29;20063;-75
2021/10/30 01:41:55;;;;;;;2.05;1.75;;;;;;;;;;4939562;29;20059;-77
2021/10/30 01:44:23;;;;;;;1.90;1.70;;;;;;;;;;4956450;29;20047;-78
2021/10/30 01:46:56;;;;;;;2.08;1.80;;;;;;;;;;4956814;29;20055;-75
2021/10/30 01:49:28;;;;;;;1.90;1.80;;;;;;;;;;4956855;29;20039;-78
2021/10/30 01:51:59;;;;;;;2.72;1.60;;;;;;;;;;4939299;29;20043;-77
2021/10/30 01:54:29;;;;;;;1.70;1.60;;;;;;;;;;4939380;29;20130;-78
2021/10/30 01:56:57;;;;;;;3.17;1.88;;;;;;;;;;4939970;29;20039;-77
2021/10/30 01:59:28;;;;;;;3.80;2.05;;;;;;;;;;4956288;29;20127;-78
2021/10/30 02:01:58;;;;;;;2.60;1.90;;;;;;;;;;4956393;29;20035;-78
2021/10/30 02:04:27;;;;;;;2.13;1.65;;;;;;;;;;4956370;29;20115;-77
2021/10/30 02:06:56;;;;;;;2.05;1.83;;;;;;;;;;4939175;29;20066;-78
2021/10/30 02:09:24;;;;;;;2.15;1.60;;;;;;;;;;4939318;29;20065;-78
2021/10/30 02:11:56;;;;;;;9.63;2.00;;;;;;;;;;4956335;29;20044;-75
2021/10/30 02:14:24;;;;;;;2.22;1.70;;;;;;;;;;4939441;29;20039;-75
2021/10/30 02:16:52;;;;;;;2.97;1.83;;;;;;;;;;4956410;29;20051;-75
2021/10/30 02:19:20;;;;;;;1.88;1.67;;;;;;;;;;4956517;29;20047;-78
2021/10/30 02:21:48;;;;;;;2.92;1.90;;;;;;;;;;4955611;29;20050;-75
2021/10/30 02:24:18;;;;;;;2.03;1.65;;;;;;;;;;4938565;29;20056;-75
2021/10/30 02:26:46;;;;;;;3.55;1.90;;;;;;;;;;4938462;29;20054;-75
2021/10/30 02:29:22;;;;;;;3.53;1.98;;;;;;;;;;4956071;29;20043;-77
2021/10/30 02:31:52;;;;;;;4.13;1.90;;;;;;;;;;4938614;29;20047;-75
2021/10/30 02:34:23;;;;;;;4.38;2.53;;;;;;;;;;4956068;28;20114;-78
2021/10/30 02:36:53;;;;;;;2.85;2.00;;;;;;;;;;4955423;29;20400;-75
2021/10/30 02:39:21;;;;;;;3.60;2.00;;;;;;;;;;4955673;29;20043;-75
2021/10/30 02:41:49;;;;;;;4.40;2.03;;;;;;;;;;4938520;29;20035;-75
2021/10/30 02:44:19;;;;;;;4.75;2.10;;;;;;;;;;4938636;29;20091;-75
2021/10/30 02:46:48;;;;;;;4.18;2.10;;;;;;;;;;4955588;29;20126;-78
2021/10/30 02:49:17;;;;;;;2.90;1.90;;;;;;;;;;4955532;29;20084;-77
2021/10/30 02:51:45;;;;;;;4.05;2.08;;;;;;;;;;4955350;29;20489;-75
2021/10/30 02:54:15;;;;;;;5.15;2.05;;;;;;;;;;4955701;29;20090;-75
2021/10/30 02:56:43;;;;;;;4.13;2.28;;;;;;;;;;4955572;29;20054;-78
2021/10/30 02:59:13;;;;;;;2.30;2.10;;;;;;;;;;4938747;29;20047;-77
2021/10/30 03:01:41;;;;;;;3.00;1.85;;;;;;;;;;4955274;29;20050;-78
2021/10/30 03:04:09;;;;;;;5.65;1.98;;;;;;;;;;4937884;29;20522;-77
2021/10/30 03:06:37;;;;;;;2.95;1.67;;;;;;;;;;4938207;29;20054;-77
2021/10/30 03:09:05;;;;;;;1.60;1.48;;;;;;;;;;4938350;29;20057;-77
2021/10/30 03:11:32;;;;;;;1.95;1.70;;;;;;;;;;4938607;29;20390;-75
2021/10/30 03:14:00;;;;;;;6.53;1.90;;;;;;;;;;4937808;29;20054;-75
2021/10/30 03:16:31;;;;;;;3.08;1.80;;;;;;;;;;4938269;29;20409;-75
2021/10/30 03:18:59;;;;;;;1.67;1.45;;;;;;;;;;4954989;29;20044;-75
2021/10/30 03:21:27;;;;;;;1.85;1.50;;;;;;;;;;4937765;29;20047;-78
2021/10/30 03:23:55;;;;;;;2.78;1.55;;;;;;;;;;4937999;29;20055;-75
2021/10/30 03:26:23;;;;;;;2.22;1.55;;;;;;;;;;4955170;29;20072;-75
2021/10/30 03:28:53;;;;;;;1.50;1.40;;;;;;;;;;4954877;29;20043;-75
2021/10/30 03:31:21;;;;;;;1.70;1.60;;;;;;;;;;4954833;29;20130;-75
2021/10/30 03:33:48;;;;;;;2.65;1.33;;;;;;;;;;4937400;29;20043;-77
2021/10/30 03:36:17;;;;;;;1.77;1.48;;;;;;;;;;4955346;29;20054;-78
2021/10/30 03:38:45;;;;;;;1.27;1.15;;;;;;;;;;4954589;28;20036;-76
2021/10/30 03:41:15;;;;;;;1.90;1.70;;;;;;;;;;4937685;29;20042;-77
2021/10/30 03:43:46;;;;;;;2.58;1.70;;;;;;;;;;4937999;29;20047;-77
2021/10/30 03:46:14;;;;;;;1.75;1.65;;;;;;;;;;4954827;29;20137;-78
2021/10/30 03:48:45;;;;;;;2.30;1.48;;;;;;;;;;4937348;29;20560;-77
2021/10/30 03:51:13;;;;;;;1.80;1.70;;;;;;;;;;4955030;29;20043;-77
2021/10/30 03:53:43;;;;;;;1.70;1.58;;;;;;;;;;4954965;29;20043;-76
2021/10/30 03:56:11;;;;;;;3.85;1.65;;;;;;;;;;4937177;29;20097;-78
2021/10/30 03:58:38;;;;;;;1.85;1.70;;;;;;;;;;4955202;29;20050;-75
2021/10/30 04:01:07;;;;;;;3.75;2.10;;;;;;;;;;4937642;29;20049;-78
2021/10/30 04:03:36;;;;;;;3.22;2.00;;;;;;;;;;4954222;29;20437;-75
2021/10/30 04:06:08;;;;;;;3.08;2.08;;;;;;;;;;4937430;29;20043;-74
2021/10/30 04:08:41;;;;;;;4.63;2.08;;;;;;;;;;4954762;29;20051;-75
2021/10/30 04:11:19;;;;;;;3.83;1.98;;;;;;;;;;4954669;29;20039;-77
2021/10/30 04:13:51;;;;;;;3.88;1.90;;;;;;;;;;4954776;29;20473;-78
2021/10/30 04:16:19;;;;;;;4.47;2.33;;;;;;;;;;4954702;29;20499;-75
2021/10/30 04:18:52;;;;;;;3.53;2.28;;;;;;;;;;4954354;29;20094;-76
2021/10/30 04:21:21;;;;;;;3.35;2.42;;;;;;;;;;4954310;29;20043;-77
2021/10/30 04:23:50;;;;;;;4.13;2.70;;;;;;;;;;4954185;29;20048;-76
2021/10/30 04:26:18;;;;;;;4.28;2.53;;;;;;;;;;4937752;29;20081;-74
2021/10/30 04:28:46;;;;;;;3.33;2.42;;;;;;;;;;4937532;29;20429;-75
2021/10/30 04:31:20;;;;;;;2.72;2.42;;;;;;;;;;4937184;29;20055;-75
2021/10/30 04:33:49;;;;;;;3.10;2.30;;;;;;;;;;4954395;28;20043;-77
2021/10/30 04:36:17;;;;;;;5.10;2.60;;;;;;;;;;4937582;29;20413;-74
2021/10/30 04:38:45;;;;;;;2.90;2.28;;;;;;;;;;4954259;29;20119;-78
2021/10/30 04:41:17;;;;;;;3.03;2.55;;;;;;;;;;4937033;29;20098;-75
2021/10/30 04:43:47;;;;;;;2.90;2.50;;;;;;;;;;4937335;29;20047;-75
2021/10/30 04:46:15;;;;;;;6.70;2.83;;;;;;;;;;4953616;29;20049;-74
2021/10/30 04:48:44;;;;;;;3.35;2.70;;;;;;;;;;4953825;28;20054;-76
2021/10/30 04:51:11;;;;;;;5.07;2.83;;;;;;;;;;4956695;29;20043;-74
2021/10/30 04:54:08;;;;;;;5.35;2.70;;;;;;;;;;4957147;29;20133;-74
2021/10/30 04:56:35;;;;;;;3.67;2.78;;;;;;;;;;4957808;29;20123;-77
2021/10/30 04:59:05;;;;;;;2.95;2.65;;;;;;;;;;4940759;29;20050;-78
2021/10/30 05:01:33;;;;;;;4.57;2.63;;;;;;;;;;4957055;29;20067;-74
2021/10/30 05:04:02;;;;;;;3.00;2.60;;;;;;;;;;4940118;29;20081;-77
2021/10/30 05:06:30;;;;;;;5.97;2.72;;;;;;;;;;4957124;29;20102;-78
2021/10/30 05:08:59;;;;;;;3.50;3.08;;;;;;;;;;4940483;29;20050;-75
2021/10/30 05:11:27;;;;;;;5.88;3.00;;;;;;;;;;4940366;29;20051;-77
2021/10/30 05:13:55;;;;;;;3.50;2.70;;;;;;;;;;4924656;29;20493;-75
2021/10/30 05:16:23;;;;;;;4.05;2.75;;;;;;;;;;4924187;29;20047;-77
2021/10/30 05:18:51;;;;;;;5.88;3.00;;;;;;;;;;4957396;29;20102;-80
2021/10/30 05:21:18;;;;;;;6.15;2.90;;;;;;;;;;4924381;29;20054;-81
2021/10/30 05:23:46;;;;;;;5.93;3.42;;;;;;;;;;4939783;29;20143;-81
2021/10/30 05:26:17;;;;;;;3.83;3.00;;;;;;;;;;4957540;29;20492;-78
2021/10/30 05:28:44;;;;;;;6.43;3.10;;;;;;;;;;4923640;29;20052;-80
2021/10/30 05:31:12;;;;;;;3.55;2.95;;;;;;;;;;4948981;29;20067;-79
2021/10/30 05:33:40;;;;;;;5.93;3.30;;;;;;;;;;4916448;29;20040;-81
2021/10/30 05:36:30;;;;;;;5.43;3.50;;;;;;;;;;4895094;29;20051;-76
2021/10/30 05:39:11;;;;;;;9.98;4.55;;;;;;;;;;4918875;29;20466;-82
2021/10/30 05:41:38;;;;;;;6.35;3.97;;;;;;;;;;4921009;29;20135;-78
2021/10/30 05:44:06;;;;;;;6.70;3.22;;;;;;;;;;4943608;29;20066;-78
2021/10/30 05:46:36;;;;;;;5.93;3.33;;;;;;;;;;4939826;29;20057;-77
2021/10/30 05:49:04;;;;;;;6.88;3.38;;;;;;;;;;4939865;29;20055;-76
2021/10/30 05:51:32;;;;;;;9.23;3.65;;;;;;;;;;4940086;29;20054;-80
2021/10/30 05:54:00;;;;;;;10.88;4.30;;;;;;;;;;4924203;29;20043;-81
2021/10/30 05:56:28;;;;;;;14.90;4.30;;;;;;;;;;4956849;29;20035;-77
2021/10/30 05:58:56;;;;;;;11.98;4.13;;;;;;;;;;4923927;29;20039;-81
2021/10/30 06:01:23;;;;;;;12.90;4.50;;;;;;;;;;4939293;29;20499;-77
2021/10/30 06:03:52;;;;;;;8.95;3.92;;;;;;;;;;4939694;29;20106;-78
2021/10/30 06:06:19;;;;;;;12.18;4.18;;;;;;;;;;4923695;29;20149;-81
2021/10/30 06:08:47;;;;;;;10.25;4.20;;;;;;;;;;4938868;29;20582;-82
2021/10/30 06:11:15;;;;;;;8.18;4.10;;;;;;;;;;4939398;29;20062;-78
2021/10/30 06:13:44;;;;;;;14.40;4.43;;;;;;;;;;4956542;29;20047;-78
2021/10/30 06:16:11;;;;;;;8.85;3.80;;;;;;;;;;4956319;29;20404;-82
2021/10/30 06:18:39;;;;;;;11.20;4.03;;;;;;;;;;4923932;29;20413;-81
2021/10/30 06:21:07;;;;;;;10.02;4.25;;;;;;;;;;4955871;29;20063;-76
2021/10/30 06:23:38;;;;;;;6.53;2.97;;;;;;;;;;4956054;29;20086;-82
2021/10/30 06:26:09;;;;;;;7.22;3.30;;;;;;;;;;4938578;29;20043;-77
2021/10/30 06:28:37;;;;;;;6.07;3.08;;;;;;;;;;4938796;29;20466;-79
2021/10/30 06:31:04;;;;;;;4.25;3.00;;;;;;;;;;4923593;29;20404;-83
2021/10/30 06:33:32;;;;;;;6.82;2.78;;;;;;;;;;4938746;29;20039;-77
2021/10/30 06:35:59;;;;;;;3.88;2.50;;;;;;;;;;4938521;29;20093;-77
2021/10/30 06:38:27;;;;;;;3.65;2.70;;;;;;;;;;4922893;29;20039;-83
2021/10/30 06:40:57;;;;;;;3.22;2.42;;;;;;;;;;4955964;29;20039;-77
2021/10/30 06:43:25;;;;;;;3.75;2.28;;;;;;;;;;4939450;29;20043;-78
2021/10/30 06:45:53;;;;;;;5.75;2.83;;;;;;;;;;4938788;29;20157;-84
2021/10/30 06:48:21;;;;;;;8.63;3.60;;;;;;;;;;4955885;29;20103;-81
2021/10/30 06:50:48;;;;;;;5.05;2.70;;;;;;;;;;4939179;29;20130;-81
2021/10/30 06:53:16;;;;;;;5.47;2.80;;;;;;;;;;4922840;29;20513;-77
2021/10/30 06:55:44;;;;;;;7.75;3.30;;;;;;;;;;4938219;29;20130;-79
2021/10/30 06:58:16;;;;;;;3.78;2.67;;;;;;;;;;4955122;29;20043;-76
2021/10/30 07:00:45;;;;;;;2.90;2.50;;;;;;;;;;4938362;29;20043;-79
2021/10/30 07:03:12;;;;;;;4.95;2.55;;;;;;;;;;4955563;29;20039;-82
2021/10/30 07:05:41;;;;;;;4.18;2.33;;;;;;;;;;4923095;29;20053;-82
2021/10/30 07:08:09;;;;;;;3.72;2.10;;;;;;;;;;4955189;29;20043;-77
2021/10/30 07:10:37;;;;;;;3.45;2.30;;;;;;;;;;4955360;29;20552;-78
2021/10/30 07:13:08;;;;;;;4.80;2.25;;;;;;;;;;4954876;28;20076;-78
2021/10/30 07:15:38;;;;;;;3.90;2.40;;;;;;;;;;4937525;29;20167;-78
2021/10/30 07:18:06;;;;;;;4.18;2.05;;;;;;;;;;4937745;29;20039;-77
2021/10/30 07:20:33;;;;;;;6.95;2.15;;;;;;;;;;4937635;29;20054;-82
2021/10/30 07:23:01;;;;;;;3.45;1.90;;;;;;;;;;4954989;29;20047;-83
2021/10/30 07:25:28;;;;;;;6.93;2.40;;;;;;;;;;4937823;29;20133;-83
2021/10/30 07:27:56;;;;;;;3.28;2.20;;;;;;;;;;4937781;29;20075;-83
2021/10/30 07:30:23;;;;;;;3.05;2.05;;;;;;;;;;4922389;29;20043;-78
2021/10/30 07:32:52;;;;;;;4.18;2.47;;;;;;;;;;4938217;29;20054;-82
2021/10/30 07:35:21;;;;;;;3.40;2.35;;;;;;;;;;4954888;29;20047;-82
2021/10/30 07:37:50;;;;;;;3.40;1.80;;;;;;;;;;4922463;29;20070;-82
2021/10/30 07:40:17;;;;;;;4.50;1.90;;;;;;;;;;4937967;29;20039;-78
2021/10/30 07:42:45;;;;;;;4.40;1.90;;;;;;;;;;4955357;29;20129;-83
2021/10/30 07:45:12;;;;;;;3.97;2.28;;;;;;;;;;4937533;29;20039;-84
2021/10/30 07:47:44;;;;;;;4.37;2.10;;;;;;;;;;4954833;29;20099;-83
2021/10/30 07:50:12;;;;;;;3.58;2.10;;;;;;;;;;4937695;29;20591;-78
2021/10/30 07:52:40;;;;;;;4.55;2.13;;;;;;;;;;4937252;29;20051;-83
2021/10/30 07:55:07;;;;;;;2.58;1.80;;;;;;;;;;4937672;29;20043;-79
2021/10/30 07:57:36;;;;;;;6.85;1.90;;;;;;;;;;4924693;29;20062;-76
2021/10/30 08:00:07;;;;;;;3.25;2.05;;;;;;;;;;4902960;29;20055;-84
2021/10/30 08:02:41;;;;;;;2.92;1.92;;;;;;;;;;4932758;29;20071;-84
2021/10/30 08:05:09;;;;;;;2.92;1.80;;;;;;;;;;4934173;29;20119;-78
2021/10/30 08:07:37;;;;;;;2.90;1.77;;;;;;;;;;4918344;29;20043;-85
2021/10/30 08:10:08;;;;;;;8.05;2.08;;;;;;;;;;4918723;29;20039;-78
2021/10/30 08:12:35;;;;;;;3.40;1.70;;;;;;;;;;4904915;29;20424;-83
2021/10/30 08:15:04;;;;;;;5.20;1.92;;;;;;;;;;4918168;29;20103;-78
2021/10/30 08:17:32;;;;;;;3.65;1.75;;;;;;;;;;4916578;29;20047;-79
2021/10/30 08:20:00;;;;;;;3.45;2.03;;;;;;;;;;4917761;29;20043;-83
2021/10/30 08:22:27;;;;;;;4.97;1.60;;;;;;;;;;4917506;29;20044;-82
2021/10/30 08:24:55;;;;;;;5.15;1.90;;;;;;;;;;5046786;23;20154;-84
2021/10/30 08:27:22;;;;;;;6.15;1.90;;;;;;;;;;4954186;29;20043;-79
2021/10/30 08:29:50;;;;;;;2.40;1.98;;;;;;;;;;4957527;28;20043;-84
2021/10/30 08:32:17;;;;;;;7.07;2.00;;;;;;;;;;4925344;29;20050;-82
2021/10/30 08:34:45;;;;;;;5.03;2.05;;;;;;;;;;4940730;29;20567;-82
2021/10/30 08:37:12;;;;;;;2.70;2.15;;;;;;;;;;4941409;29;20535;-84
2021/10/30 08:39:40;;;;;;;5.85;2.17;;;;;;;;;;4957706;29;20077;-81
2021/10/30 08:42:09;;;;;;;4.30;2.25;;;;;;;;;;4957247;29;20051;-78
2021/10/30 08:44:37;;;;;;;4.82;2.35;;;;;;;;;;4925356;29;20069;-81
2021/10/30 08:47:09;;;;;;;5.38;2.17;;;;;;;;;;4940189;29;20073;-78
2021/10/30 08:49:37;;;;;;;3.95;2.03;;;;;;;;;;4924417;29;20146;-81
2021/10/30 08:52:05;;;;;;;7.18;2.35;;;;;;;;;;4935009;28;20047;-78
2021/10/30 08:54:36;;;;;;;3.20;1.88;;;;;;;;;;4944925;29;20054;-78
2021/10/30 08:57:04;;;;;;;7.25;2.55;;;;;;;;;;4940554;29;20043;-79
2021/10/30 08:59:41;;;;;;;6.68;2.65;;;;;;;;;;4957755;29;20051;-82
2021/10/30 09:02:09;;;;;;;7.13;2.72;;;;;;;;;;4940835;29;20047;-84
2021/10/30 09:04:36;;;;;;;7.53;3.22;;;;;;;;;;4940521;29;20069;-80
2021/10/30 09:07:08;;;;;;;4.03;2.83;;;;;;;;;;4940322;29;20350;-79
2021/10/30 09:09:38;;;;;;;4.30;2.60;;;;;;;;;;4940479;29;20043;-79
2021/10/30 09:12:05;;;;;;;7.45;2.42;;;;;;;;;;4925819;29;20090;-82
2021/10/30 09:14:34;;;;;;;4.80;2.58;;;;;;;;;;4957858;29;20118;-81
2021/10/30 09:17:15;;;;;;;7.60;2.80;;;;;;;;;;4924215;29;20047;-82
2021/10/30 09:19:45;;;;;;;4.40;2.28;;;;;;;;;;4940272;29;20082;-75
2021/10/30 09:22:13;;;;;;;9.75;2.83;;;;;;;;;;4920757;29;20477;-83
2021/10/30 09:25:00;;;;;;;6.90;2.13;;;;;;;;;;4939149;29;20138;-77
2021/10/30 09:27:47;;;;;;;9.50;2.50;;;;;;;;;;4939114;29;20051;-74
2021/10/30 09:30:16;;;;;;;9.18;2.63;;;;;;;;;;4940025;29;20138;-83
2021/10/30 09:32:50;;;;;;;8.82;2.78;;;;;;;;;;4979518;28;20053;-78
2021/10/30 09:35:22;;;;;;;9.93;2.85;;;;;;;;;;4966916;28;20051;-82
2021/10/30 09:37:50;;;;;;;7.07;2.60;;;;;;;;;;4958404;28;20691;-78
2021/10/30 09:40:25;;;;;;;7.65;2.60;;;;;;;;;;4974079;28;20077;-78
2021/10/30 09:43:09;;;;;;;5.38;2.42;;;;;;;;;;4946998;28;20477;-81
2021/10/30 09:45:41;;;;;;;5.57;2.05;;;;;;;;;;4955861;28;20599;-81
2021/10/30 09:48:12;;;;;;;4.32;2.22;;;;;;;;;;4975159;28;20077;-79
2021/10/30 09:50:40;;;;;;;4.30;2.10;;;;;;;;;;4942206;28;20053;-84
2021/10/30 09:53:23;;;;;;;6.93;2.20;;;;;;;;;;4960073;28;20049;-80
2021/10/30 09:55:52;;;;;;;6.75;2.10;;;;;;;;;;4940105;29;20051;-78
2021/10/30 09:58:27;;;;;;;5.85;2.33;;;;;;;;;;4955856;29;20073;-81
2021/10/30 10:00:57;;;;;;;4.72;2.05;;;;;;;;;;4958103;28;20518;-82
2021/10/30 10:03:28;;;;;;;9.27;2.47;;;;;;;;;;4967077;28;20440;-75
2021/10/30 10:05:56;;;;;;;10.00;2.30;;;;;;;;;;4955619;29;20093;-81
2021/10/30 10:08:28;;;;;;;5.05;2.03;;;;;;;;;;4922814;29;20058;-75
2021/10/30 10:10:57;;;;;;;7.78;2.00;;;;;;;;;;4938112;29;20086;-76
2021/10/30 10:13:38;;;;;;;4.97;2.17;;;;;;;;;;4955041;29;20500;-76
2021/10/30 10:16:13;;;;;;;6.35;2.30;;;;;;;;;;4954368;29;20579;-76
2021/10/30 10:18:41;;;;;;;5.20;2.33;;;;;;;;;;4937547;29;20564;-80
2021/10/30 10:21:12;;;;;;;7.55;2.83;;;;;;;;;;4953980;28;20038;-79
2021/10/30 10:23:42;;;;;;;6.30;2.80;;;;;;;;;;4977052;28;20411;-81
2021/10/30 10:26:12;;;;;;;9.45;2.70;;;;;;;;;;4976722;28;20373;-81
2021/10/30 10:28:43;;;;;;;6.75;2.80;;;;;;;;;;4976162;28;20514;-82
2021/10/30 10:31:22;;;;;;;7.78;2.88;;;;;;;;;;4974312;28;20555;-81
2021/10/30 10:34:13;;;;;;;6.07;2.55;;;;;;;;;;4940200;28;20082;-79
2021/10/30 10:36:42;;;;;;;7.80;2.70;;;;;;;;;;4955759;28;20137;-76
2021/10/30 10:39:16;;;;;;;5.57;2.38;;;;;;;;;;4972986;28;20496;-75
2021/10/30 10:41:46;;;;;;;7.28;2.33;;;;;;;;;;4973733;28;20039;-81
2021/10/30 10:44:14;;;;;;;7.70;2.33;;;;;;;;;;4959141;28;20086;-80
2021/10/30 10:46:53;;;;;;;10.65;2.30;;;;;;;;;;4943886;28;20042;-78
2021/10/30 10:49:34;;;;;;;7.28;2.40;;;;;;;;;;4941751;28;20117;-79
2021/10/30 10:52:18;;;;;;;7.63;3.60;;;;;;;;;;4974436;28;20047;-78
2021/10/30 10:55:04;;;;;;;11.00;2.85;;;;;;;;;;4973531;28;20047;-81
2021/10/30 10:57:45;;;;;;;6.53;2.13;;;;;;;;;;4975111;28;20050;-80
2021/10/30 11:00:15;;;;;;;4.45;2.05;;;;;;;;;;4958226;28;20085;-81
2021/10/30 11:02:49;;;;;;;9.40;2.80;;;;;;;;;;4958184;28;20047;-81
2021/10/30 11:05:21;;;;;;;13.50;3.88;;;;;;;;;;4958453;28;20517;-79
2021/10/30 11:08:08;;;;;;;14.88;3.80;;;;;;;;;;4977143;28;20039;-79
2021/10/30 11:10:39;;;;;;;9.10;3.90;;;;;;;;;;4974798;28;20095;-78
2021/10/30 11:13:10;;;;;;;10.95;4.15;;;;;;;;;;4957730;28;20113;-79
2021/10/30 11:15:56;;;;;;;9.98;4.22;;;;;;;;;;4957859;28;20093;-80
2021/10/30 11:18:31;;;;;;;5.05;3.60;;;;;;;;;;4956851;28;20409;-78
2021/10/30 11:21:14;;;;;;;15.43;3.97;;;;;;;;;;4974051;28;20526;-77
2021/10/30 11:23:41;;;;;;;;;;;;;;;;;;4974397;28;20126;-80
2021/10/30 11:26:12;;;;;;;6.63;3.17;;;;;;;;;;4957839;28;19928;-79
2021/10/30 11:28:40;;;;;;;7.68;3.35;;;;;;;;;;4957632;28;20053;-81
2021/10/30 11:31:17;;;;;;;5.75;2.85;;;;;;;;;;4959345;28;20051;-80
2021/10/30 11:33:46;;;;;;;4.88;2.63;;;;;;;;;;4959805;28;20043;-80
2021/10/30 11:36:16;;;;;;;3.53;3.08;;;;;;;;;;4976762;28;20053;-79
2021/10/30 11:38:46;;;;;;;5.80;2.60;;;;;;;;;;4944611;28;20042;-80
2021/10/30 11:41:20;;;;;;;7.55;3.30;;;;;;;;;;4958600;28;20039;-81
2021/10/30 11:43:57;;;;;;;5.03;3.08;;;;;;;;;;4957858;28;20140;-79
2021/10/30 11:46:25;;;;;;;6.78;2.90;;;;;;;;;;4974437;28;20125;-79
2021/10/30 11:48:56;;;;;;;7.22;2.60;;;;;;;;;;4957054;28;20042;-80
2021/10/30 11:51:33;;;;;;;6.03;2.90;;;;;;;;;;4974091;28;20043;-80
2021/10/30 11:54:02;;;;;;;6.43;3.03;;;;;;;;;;4974217;28;20049;-79
2021/10/30 11:56:30;;;;;;;9.60;3.20;;;;;;;;;;4956868;28;20074;-81
2021/10/30 11:59:03;;;;;;;8.07;3.58;;;;;;;;;;4958337;28;20039;-79
2021/10/30 12:01:47;;;;;;;10.98;3.03;;;;;;;;;;4979757;28;20113;-80
2021/10/30 12:04:22;;;;;;;9.00;3.25;;;;;;;;;;4961650;28;20121;-80
2021/10/30 12:07:08;;;;;;;8.93;2.88;;;;;;;;;;4967511;28;20528;-80
2021/10/30 12:09:42;;;;;;;6.32;2.55;;;;;;;;;;4958821;29;20412;-80
2021/10/30 12:12:20;;;;;;;7.97;2.63;;;;;;;;;;4959775;29;20096;-80
2021/10/30 12:14:49;;;;;;;5.45;2.60;;;;;;;;;;4941231;29;20142;-79
2021/10/30 12:17:19;;;;;;;5.30;2.83;;;;;;;;;;4925751;29;20043;-80
2021/10/30 12:19:47;;;;;;;7.05;2.70;;;;;;;;;;4958496;29;20493;-80
2021/10/30 12:22:20;;;;;;;5.25;2.30;;;;;;;;;;4925936;29;20042;-79
2021/10/30 12:24:57;;;;;;;3.90;2.38;;;;;;;;;;4961067;29;20505;-81
2021/10/30 12:27:24;;;;;;;5.70;2.53;;;;;;;;;;4943518;29;20103;-80
2021/10/30 12:29:52;;;;;;;4.45;2.22;;;;;;;;;;4925562;29;20047;-81
2021/10/30 12:32:22;;;;;;;6.43;2.10;;;;;;;;;;4929250;28;20125;-81
2021/10/30 12:34:56;;;;;;;3.38;2.20;;;;;;;;;;4965648;28;20139;-81
2021/10/30 12:37:28;;;;;;;5.82;2.30;;;;;;;;;;4966610;28;20102;-81
2021/10/30 12:40:08;;;;;;;2.42;1.80;;;;;;;;;;4917754;28;20154;-81
2021/10/30 12:42:36;;;;;;;5.93;2.00;;;;;;;;;;4951764;28;20126;-81
2021/10/30 12:45:04;;;;;;;6.97;2.03;;;;;;;;;;4961881;28;20036;-81
2021/10/30 12:47:32;;;;;;;6.43;2.20;;;;;;;;;;4944012;29;20053;-80
2021/10/30 12:50:01;;;;;;;4.45;2.15;;;;;;;;;;4962250;28;20046;-81
2021/10/30 12:52:40;;;;;;;6.38;2.30;;;;;;;;;;4978836;28;20035;-81
2021/10/30 12:55:12;;;;;;;9.30;2.65;;;;;;;;;;4951797;29;20139;-81
2021/10/30 12:57:39;;;;;;;6.90;2.50;;;;;;;;;;4952164;29;20130;-81
2021/10/30 13:00:12;;;;;;;8.55;2.65;;;;;;;;;;4950199;29;20038;-81
2021/10/30 13:02:40;;;;;;;5.40;2.75;;;;;;;;;;4968068;28;20068;-81
2021/10/30 13:05:18;;;;;;;6.85;2.55;;;;;;;;;;4980581;28;20488;-81
2021/10/30 13:07:55;;;;;;;5.80;2.30;;;;;;;;;;4935575;29;20063;-81
2021/10/30 13:10:25;;;;;;;5.85;2.55;;;;;;;;;;4963430;28;20043;-80
2021/10/30 13:12:53;;;;;;;8.65;2.97;;;;;;;;;;4942476;29;20066;-82
2021/10/30 13:15:21;;;;;;;5.63;2.78;;;;;;;;;;4962118;28;20489;-81
2021/10/30 13:17:50;;;;;;;10.15;3.88;;;;;;;;;;4962400;29;20051;-81
2021/10/30 13:20:17;;;;;;;8.57;3.00;;;;;;;;;;4938457;29;20047;-82
2021/10/30 13:22:48;;;;;;;8.95;3.30;;;;;;;;;;4960508;28;20043;-81
2021/10/30 13:25:17;;;;;;;7.70;3.40;;;;;;;;;;4963342;28;20077;-81
2021/10/30 13:27:44;;;;;;;7.75;3.53;;;;;;;;;;4947105;28;20111;-82
2021/10/30 13:30:12;;;;;;;5.68;2.67;;;;;;;;;;4958508;28;20050;-81
2021/10/30 13:32:40;;;;;;;5.72;3.22;;;;;;;;;;4946434;28;20121;-82
2021/10/30 13:35:08;;;;;;;9.63;3.00;;;;;;;;;;4942834;28;20419;-81
2021/10/30 13:37:35;;;;;;;8.00;3.30;;;;;;;;;;4959658;28;20058;-81
2021/10/30 13:40:03;;;;;;;8.25;3.13;;;;;;;;;;4975813;28;20038;-82
2021/10/30 13:42:30;;;;;;;7.35;3.35;;;;;;;;;;4955210;28;20073;-82
2021/10/30 13:44:58;;;;;;;8.45;3.20;;;;;;;;;;4959412;28;20038;-82
2021/10/30 13:47:25;;;;;;;5.82;2.80;;;;;;;;;;4957224;28;20046;-82
2021/10/30 13:49:54;;;;;;;6.90;3.20;;;;;;;;;;4957215;28;20055;-82
2021/10/30 13:52:22;;;;;;;6.72;2.90;;;;;;;;;;4975687;28;20043;-82
2021/10/30 13:54:50;;;;;;;5.93;2.90;;;;;;;;;;4974514;28;20125;-81
2021/10/30 13:57:17;;;;;;;9.25;3.30;;;;;;;;;;4974462;28;20113;-81
2021/10/30 13:59:45;;;;;;;6.38;2.80;;;;;;;;;;4974707;28;20041;-81
2021/10/30 14:02:12;;;;;;;10.43;3.30;;;;;;;;;;4973940;28;20049;-80
2021/10/30 14:04:41;;;;;;;7.65;3.28;;;;;;;;;;4969978;28;20054;-80
2021/10/30 14:07:09;;;;;;;7.45;3.03;;;;;;;;;;4978330;28;20047;-81
2021/10/30 14:09:38;;;;;;;10.07;3.15;;;;;;;;;;4957331;28;20133;-80
2021/10/30 14:12:06;;;;;;;7.93;3.45;;;;;;;;;;4944048;29;20055;-80
2021/10/30 14:14:33;;;;;;;7.10;3.13;;;;;;;;;;4938248;29;20047;-79
2021/10/30 14:17:01;;;;;;;9.27;3.80;;;;;;;;;;4922463;29;20138;-83
2021/10/30 14:19:28;;;;;;;6.75;3.20;;;;;;;;;;4924130;29;20039;-81
2021/10/30 14:21:56;;;;;;;8.98;3.42;;;;;;;;;;4955907;28;20072;-81
2021/10/30 14:24:24;;;;;;;5.80;3.08;;;;;;;;;;4956212;29;20134;-81
2021/10/30 14:26:56;;;;;;;10.75;4.18;;;;;;;;;;4941363;29;20057;-80
2021/10/30 14:29:24;;;;;;;10.45;3.70;;;;;;;;;;4938138;29;20043;-80
2021/10/30 14:31:57;;;;;;;8.73;3.92;;;;;;;;;;4923274;29;20054;-81
2021/10/30 14:34:25;;;;;;;;;;;;;;;;;;4942538;29;20493;-80
2021/10/30 14:36:53;;;;;;;7.88;3.58;;;;;;;;;;4941000;29;19922;-81
2021/10/30 14:39:21;;;;;;;11.55;5.07;;;;;;;;;;4928430;29;20428;-81
2021/10/30 14:41:49;;;;;;;8.98;4.38;;;;;;;;;;4964028;29;20070;-81
2021/10/30 14:44:17;;;;;;;9.73;4.45;;;;;;;;;;4935974;29;20039;-81
2021/10/30 14:46:45;;;;;;;16.48;4.45;;;;;;;;;;4955566;29;20416;-81
2021/10/30 14:49:13;;;;;;;12.55;5.05;;;;;;;;;;4922897;29;20044;-81
2021/10/30 14:51:40;;;;;;;11.93;5.10;;;;;;;;;;4938129;29;20370;-79
2021/10/30 14:54:11;;;;;;;12.57;4.70;;;;;;;;;;4938123;29;20126;-80
2021/10/30 14:56:39;;;;;;;13.20;6.30;;;;;;;;;;4922015;29;20082;-80
2021/10/30 14:59:06;;;;;;;20.25;6.82;;;;;;;;;;4921995;29;20082;-79
2021/10/30 15:01:35;;;;;;;14.32;5.85;;;;;;;;;;4954560;29;20047;-79